sensor_id;sensor_type;location;lat;lon;timestamp;P1;durP1;ratioP1;P2;durP2;ratioP2
67819;SDS011;54618;52.018;5.576;2023-04-30T00:01:26;3.80;;;1.73;;
67819;SDS011;54618;52.018;5.576;2023-04-30T00:03:51;5.05;;;2.00;;
67819;SDS011;54618;52.018;5.576;2023-04-30T00:06:17;4.55;;;1.83;;
67819;SDS011;54618;52.018;5.576;2023-04-30T00:08:42;4.70;;;1.98;;
67819;SDS011;54618;52.018;5.576;2023-04-30T00:11:08;5.30;;;1.88;;
67819;SDS011;54618;52.018;5.576;2023-04-30T00:13:33;5.63;;;1.77;;
67819;SDS011;54618;52.018;5.576;2023-04-30T00:15:59;5.38;;;2.08;;
67819;SDS011;54618;52.018;5.576;2023-04-30T00:18:24;3.72;;;1.60;;
67819;SDS011;54618;52.018;5.576;2023-04-30T00:20:50;4.40;;;1.83;;
67819;SDS011;54618;52.018;5.576;2023-04-30T00:23:17;3.78;;;1.90;;
67819;SDS011;54618;52.018;5.576;2023-04-30T00:25:42;4.22;;;1.80;;
67819;SDS011;54618;52.018;5.576;2023-04-30T00:28:08;4.93;;;1.90;;
67819;SDS011;54618;52.018;5.576;2023-04-30T00:30:34;4.70;;;1.90;;
67819;SDS011;54618;52.018;5.576;2023-04-30T00:32:59;5.15;;;2.05;;
67819;SDS011;54618;52.018;5.576;2023-04-30T00:35:25;3.30;;;1.80;;
67819;SDS011;54618;52.018;5.576;2023-04-30T00:37:50;4.90;;;2.17;;
67819;SDS011;54618;52.018;5.576;2023-04-30T00:40:16;4.88;;;1.85;;
67819;SDS011;54618;52.018;5.576;2023-04-30T00:42:42;5.10;;;1.63;;
67819;SDS011;54618;52.018;5.576;2023-04-30T00:45:07;3.63;;;1.67;;
67819;SDS011;54618;52.018;5.576;2023-04-30T00:47:33;4.50;;;2.03;;
67819;SDS011;54618;52.018;5.576;2023-04-30T00:49:59;4.25;;;2.13;;
67819;SDS011;54618;52.018;5.576;2023-04-30T00:52:25;3.58;;;1.98;;
67819;SDS011;54618;52.018;5.576;2023-04-30T00:54:52;5.35;;;1.95;;
67819;SDS011;54618;52.018;5.576;2023-04-30T00:57:18;5.97;;;2.00;;
67819;SDS011;54618;52.018;5.576;2023-04-30T00:59:45;4.68;;;1.83;;
67819;SDS011;54618;52.018;5.576;2023-04-30T01:02:11;5.10;;;1.92;;
67819;SDS011;54618;52.018;5.576;2023-04-30T01:04:37;4.20;;;1.85;;
67819;SDS011;54618;52.018;5.576;2023-04-30T01:07:02;4.00;;;1.75;;
67819;SDS011;54618;52.018;5.576;2023-04-30T01:09:29;4.18;;;2.00;;
67819;SDS011;54618;52.018;5.576;2023-04-30T01:12:01;4.07;;;1.90;;
67819;SDS011;54618;52.018;5.576;2023-04-30T01:17:16;4.28;;;1.58;;
67819;SDS011;54618;52.018;5.576;2023-04-30T01:19:52;4.97;;;1.65;;
67819;SDS011;54618;52.018;5.576;2023-04-30T01:30:29;4.93;;;1.90;;
67819;SDS011;54618;52.018;5.576;2023-04-30T01:32:56;4.60;;;1.73;;
67819;SDS011;54618;52.018;5.576;2023-04-30T01:35:38;3.42;;;1.77;;
67819;SDS011;54618;52.018;5.576;2023-04-30T01:38:26;3.33;;;1.70;;
67819;SDS011;54618;52.018;5.576;2023-04-30T01:41:06;4.45;;;1.80;;
67819;SDS011;54618;52.018;5.576;2023-04-30T01:46:34;2.85;;;1.80;;
67819;SDS011;54618;52.018;5.576;2023-04-30T01:49:07;3.60;;;1.65;;
67819;SDS011;54618;52.018;5.576;2023-04-30T01:51:43;3.40;;;1.80;;
67819;SDS011;54618;52.018;5.576;2023-04-30T01:54:16;3.58;;;1.70;;
67819;SDS011;54618;52.018;5.576;2023-04-30T01:57:09;3.72;;;1.85;;
67819;SDS011;54618;52.018;5.576;2023-04-30T01:59:40;4.68;;;1.83;;
67819;SDS011;54618;52.018;5.576;2023-04-30T02:02:07;3.50;;;2.00;;
67819;SDS011;54618;52.018;5.576;2023-04-30T02:04:32;4.57;;;1.83;;
67819;SDS011;54618;52.018;5.576;2023-04-30T02:06:58;3.70;;;1.83;;
67819;SDS011;54618;52.018;5.576;2023-04-30T02:09:24;3.53;;;1.73;;
67819;SDS011;54618;52.018;5.576;2023-04-30T02:11:49;2.45;;;1.58;;
67819;SDS011;54618;52.018;5.576;2023-04-30T02:14:15;4.10;;;1.70;;
67819;SDS011;54618;52.018;5.576;2023-04-30T02:16:41;2.78;;;1.42;;
67819;SDS011;54618;52.018;5.576;2023-04-30T02:19:07;4.80;;;1.80;;
67819;SDS011;54618;52.018;5.576;2023-04-30T02:21:33;3.83;;;1.65;;
67819;SDS011;54618;52.018;5.576;2023-04-30T02:23:58;3.65;;;1.88;;
67819;SDS011;54618;52.018;5.576;2023-04-30T02:26:24;4.30;;;1.90;;
67819;SDS011;54618;52.018;5.576;2023-04-30T02:28:50;4.35;;;1.85;;
67819;SDS011;54618;52.018;5.576;2023-04-30T02:31:16;3.03;;;1.70;;
67819;SDS011;54618;52.018;5.576;2023-04-30T02:33:41;5.30;;;1.85;;
67819;SDS011;54618;52.018;5.576;2023-04-30T02:36:07;3.90;;;1.80;;
67819;SDS011;54618;52.018;5.576;2023-04-30T02:38:32;3.47;;;1.77;;
67819;SDS011;54618;52.018;5.576;2023-04-30T02:40:58;4.50;;;1.63;;
67819;SDS011;54618;52.018;5.576;2023-04-30T02:43:23;3.10;;;1.60;;
67819;SDS011;54618;52.018;5.576;2023-04-30T02:45:49;3.47;;;1.70;;
67819;SDS011;54618;52.018;5.576;2023-04-30T02:48:14;4.75;;;1.80;;
67819;SDS011;54618;52.018;5.576;2023-04-30T02:50:40;3.95;;;1.80;;
67819;SDS011;54618;52.018;5.576;2023-04-30T02:53:05;2.85;;;1.65;;
67819;SDS011;54618;52.018;5.576;2023-04-30T02:55:31;2.85;;;1.60;;
67819;SDS011;54618;52.018;5.576;2023-04-30T02:57:57;3.00;;;1.80;;
67819;SDS011;54618;52.018;5.576;2023-04-30T03:00:22;4.00;;;1.70;;
67819;SDS011;54618;52.018;5.576;2023-04-30T03:02:48;3.03;;;1.60;;
67819;SDS011;54618;52.018;5.576;2023-04-30T03:05:13;3.33;;;1.63;;
67819;SDS011;54618;52.018;5.576;2023-04-30T03:07:39;4.20;;;1.70;;
67819;SDS011;54618;52.018;5.576;2023-04-30T03:10:05;4.13;;;1.67;;
67819;SDS011;54618;52.018;5.576;2023-04-30T03:12:31;3.25;;;1.75;;
67819;SDS011;54618;52.018;5.576;2023-04-30T03:14:57;4.18;;;1.80;;
67819;SDS011;54618;52.018;5.576;2023-04-30T03:17:22;3.10;;;1.70;;
67819;SDS011;54618;52.018;5.576;2023-04-30T03:19:48;3.38;;;1.50;;
67819;SDS011;54618;52.018;5.576;2023-04-30T03:22:15;2.25;;;1.60;;
67819;SDS011;54618;52.018;5.576;2023-04-30T03:24:43;2.72;;;1.70;;
67819;SDS011;54618;52.018;5.576;2023-04-30T03:27:09;2.80;;;1.73;;
67819;SDS011;54618;52.018;5.576;2023-04-30T03:29:34;2.58;;;1.50;;
67819;SDS011;54618;52.018;5.576;2023-04-30T03:32:00;3.15;;;1.60;;
67819;SDS011;54618;52.018;5.576;2023-04-30T03:34:25;2.67;;;1.67;;
67819;SDS011;54618;52.018;5.576;2023-04-30T03:36:51;3.72;;;1.65;;
67819;SDS011;54618;52.018;5.576;2023-04-30T03:39:16;3.30;;;1.60;;
67819;SDS011;54618;52.018;5.576;2023-04-30T03:41:42;3.35;;;1.55;;
67819;SDS011;54618;52.018;5.576;2023-04-30T03:44:08;3.10;;;1.48;;
67819;SDS011;54618;52.018;5.576;2023-04-30T03:46:39;3.58;;;1.70;;
67819;SDS011;54618;52.018;5.576;2023-04-30T03:49:08;2.50;;;1.50;;
67819;SDS011;54618;52.018;5.576;2023-04-30T03:51:33;3.15;;;1.52;;
67819;SDS011;54618;52.018;5.576;2023-04-30T03:54:03;2.42;;;1.40;;
67819;SDS011;54618;52.018;5.576;2023-04-30T03:56:30;4.60;;;1.70;;
67819;SDS011;54618;52.018;5.576;2023-04-30T03:58:56;2.58;;;1.50;;
67819;SDS011;54618;52.018;5.576;2023-04-30T04:01:22;3.72;;;1.50;;
67819;SDS011;54618;52.018;5.576;2023-04-30T04:03:48;2.65;;;1.58;;
67819;SDS011;54618;52.018;5.576;2023-04-30T04:06:13;2.83;;;1.70;;
67819;SDS011;54618;52.018;5.576;2023-04-30T04:08:39;4.03;;;1.65;;
67819;SDS011;54618;52.018;5.576;2023-04-30T04:11:07;2.85;;;1.60;;
67819;SDS011;54618;52.018;5.576;2023-04-30T04:13:34;2.55;;;1.52;;
67819;SDS011;54618;52.018;5.576;2023-04-30T04:15:59;3.25;;;1.55;;
67819;SDS011;54618;52.018;5.576;2023-04-30T04:18:25;3.33;;;1.50;;
67819;SDS011;54618;52.018;5.576;2023-04-30T04:20:50;2.33;;;1.55;;
67819;SDS011;54618;52.018;5.576;2023-04-30T04:23:16;2.20;;;1.40;;
67819;SDS011;54618;52.018;5.576;2023-04-30T04:25:41;2.45;;;1.52;;
67819;SDS011;54618;52.018;5.576;2023-04-30T04:28:08;2.58;;;1.45;;
67819;SDS011;54618;52.018;5.576;2023-04-30T04:30:33;2.83;;;1.60;;
67819;SDS011;54618;52.018;5.576;2023-04-30T04:33:00;3.85;;;1.80;;
67819;SDS011;54618;52.018;5.576;2023-04-30T04:35:26;2.33;;;1.65;;
67819;SDS011;54618;52.018;5.576;2023-04-30T04:37:52;2.50;;;1.40;;
67819;SDS011;54618;52.018;5.576;2023-04-30T04:40:17;3.58;;;1.65;;
67819;SDS011;54618;52.018;5.576;2023-04-30T04:42:43;2.58;;;1.60;;
67819;SDS011;54618;52.018;5.576;2023-04-30T04:45:08;3.30;;;1.70;;
67819;SDS011;54618;52.018;5.576;2023-04-30T04:47:35;2.65;;;1.50;;
67819;SDS011;54618;52.018;5.576;2023-04-30T04:50:00;3.22;;;1.35;;
67819;SDS011;54618;52.018;5.576;2023-04-30T04:52:26;2.50;;;1.42;;
67819;SDS011;54618;52.018;5.576;2023-04-30T04:54:52;3.28;;;1.70;;
67819;SDS011;54618;52.018;5.576;2023-04-30T04:57:17;3.30;;;1.45;;
67819;SDS011;54618;52.018;5.576;2023-04-30T04:59:43;2.42;;;1.48;;
67819;SDS011;54618;52.018;5.576;2023-04-30T05:02:09;2.45;;;1.40;;
67819;SDS011;54618;52.018;5.576;2023-04-30T05:04:34;2.30;;;1.58;;
67819;SDS011;54618;52.018;5.576;2023-04-30T05:07:00;2.38;;;1.48;;
67819;SDS011;54618;52.018;5.576;2023-04-30T05:09:25;1.85;;;1.25;;
67819;SDS011;54618;52.018;5.576;2023-04-30T05:11:51;2.50;;;1.42;;
67819;SDS011;54618;52.018;5.576;2023-04-30T05:14:16;2.15;;;1.50;;
67819;SDS011;54618;52.018;5.576;2023-04-30T05:16:42;2.10;;;1.30;;
67819;SDS011;54618;52.018;5.576;2023-04-30T05:19:07;2.42;;;1.42;;
67819;SDS011;54618;52.018;5.576;2023-04-30T05:21:33;2.60;;;1.50;;
67819;SDS011;54618;52.018;5.576;2023-04-30T05:23:59;2.45;;;1.40;;
67819;SDS011;54618;52.018;5.576;2023-04-30T05:26:27;3.05;;;1.40;;
67819;SDS011;54618;52.018;5.576;2023-04-30T05:28:53;2.70;;;1.35;;
67819;SDS011;54618;52.018;5.576;2023-04-30T05:31:18;2.65;;;1.50;;
67819;SDS011;54618;52.018;5.576;2023-04-30T05:33:44;2.17;;;1.33;;
67819;SDS011;54618;52.018;5.576;2023-04-30T05:36:09;2.03;;;1.20;;
67819;SDS011;54618;52.018;5.576;2023-04-30T05:38:35;2.30;;;1.30;;
67819;SDS011;54618;52.018;5.576;2023-04-30T05:41:00;3.40;;;1.30;;
67819;SDS011;54618;52.018;5.576;2023-04-30T05:43:26;2.30;;;1.17;;
67819;SDS011;54618;52.018;5.576;2023-04-30T05:45:52;1.63;;;1.00;;
67819;SDS011;54618;52.018;5.576;2023-04-30T05:48:18;3.08;;;1.30;;
67819;SDS011;54618;52.018;5.576;2023-04-30T05:50:43;2.95;;;1.23;;
67819;SDS011;54618;52.018;5.576;2023-04-30T05:53:09;1.50;;;1.00;;
67819;SDS011;54618;52.018;5.576;2023-04-30T05:55:34;1.90;;;1.10;;
67819;SDS011;54618;52.018;5.576;2023-04-30T05:58:00;2.42;;;1.15;;
67819;SDS011;54618;52.018;5.576;2023-04-30T06:00:25;1.58;;;1.10;;
67819;SDS011;54618;52.018;5.576;2023-04-30T06:02:51;1.42;;;0.98;;
67819;SDS011;54618;52.018;5.576;2023-04-30T06:05:17;1.63;;;1.00;;
67819;SDS011;54618;52.018;5.576;2023-04-30T06:07:43;2.38;;;1.10;;
67819;SDS011;54618;52.018;5.576;2023-04-30T06:10:08;2.28;;;1.15;;
67819;SDS011;54618;52.018;5.576;2023-04-30T06:12:34;2.25;;;1.00;;
67819;SDS011;54618;52.018;5.576;2023-04-30T06:15:00;1.55;;;0.98;;
67819;SDS011;54618;52.018;5.576;2023-04-30T06:17:26;2.22;;;0.95;;
67819;SDS011;54618;52.018;5.576;2023-04-30T06:19:51;1.50;;;1.08;;
67819;SDS011;54618;52.018;5.576;2023-04-30T06:22:17;1.80;;;1.10;;
67819;SDS011;54618;52.018;5.576;2023-04-30T06:24:42;1.83;;;1.10;;
67819;SDS011;54618;52.018;5.576;2023-04-30T06:27:08;2.42;;;1.00;;
67819;SDS011;54618;52.018;5.576;2023-04-30T06:29:33;2.05;;;1.00;;
67819;SDS011;54618;52.018;5.576;2023-04-30T06:31:59;1.17;;;0.85;;
67819;SDS011;54618;52.018;5.576;2023-04-30T06:34:25;2.30;;;1.17;;
67819;SDS011;54618;52.018;5.576;2023-04-30T06:36:50;1.40;;;1.00;;
67819;SDS011;54618;52.018;5.576;2023-04-30T06:39:16;1.38;;;1.00;;
67819;SDS011;54618;52.018;5.576;2023-04-30T06:41:41;1.55;;;0.90;;
67819;SDS011;54618;52.018;5.576;2023-04-30T06:44:07;1.52;;;1.10;;
67819;SDS011;54618;52.018;5.576;2023-04-30T06:46:33;1.50;;;1.00;;
67819;SDS011;54618;52.018;5.576;2023-04-30T06:48:59;2.05;;;1.10;;
67819;SDS011;54618;52.018;5.576;2023-04-30T06:51:24;2.03;;;1.00;;
67819;SDS011;54618;52.018;5.576;2023-04-30T06:53:50;1.13;;;0.80;;
67819;SDS011;54618;52.018;5.576;2023-04-30T06:56:16;1.40;;;0.85;;
67819;SDS011;54618;52.018;5.576;2023-04-30T06:58:41;1.10;;;0.80;;
67819;SDS011;54618;52.018;5.576;2023-04-30T07:01:07;2.10;;;1.00;;
67819;SDS011;54618;52.018;5.576;2023-04-30T07:03:33;1.80;;;0.90;;
67819;SDS011;54618;52.018;5.576;2023-04-30T07:05:59;1.95;;;1.02;;
67819;SDS011;54618;52.018;5.576;2023-04-30T07:08:25;2.08;;;1.17;;
67819;SDS011;54618;52.018;5.576;2023-04-30T07:10:50;1.63;;;0.90;;
67819;SDS011;54618;52.018;5.576;2023-04-30T07:13:16;1.60;;;1.00;;
67819;SDS011;54618;52.018;5.576;2023-04-30T07:15:41;1.30;;;0.90;;
67819;SDS011;54618;52.018;5.576;2023-04-30T07:18:07;1.30;;;0.93;;
67819;SDS011;54618;52.018;5.576;2023-04-30T07:20:33;1.70;;;1.00;;
67819;SDS011;54618;52.018;5.576;2023-04-30T07:22:59;1.90;;;1.05;;
67819;SDS011;54618;52.018;5.576;2023-04-30T07:25:25;1.98;;;1.00;;
67819;SDS011;54618;52.018;5.576;2023-04-30T07:27:51;1.77;;;0.90;;
67819;SDS011;54618;52.018;5.576;2023-04-30T07:30:19;1.63;;;1.00;;
67819;SDS011;54618;52.018;5.576;2023-04-30T07:32:46;1.30;;;0.90;;
67819;SDS011;54618;52.018;5.576;2023-04-30T07:35:12;1.60;;;1.00;;
67819;SDS011;54618;52.018;5.576;2023-04-30T07:37:38;1.80;;;1.00;;
67819;SDS011;54618;52.018;5.576;2023-04-30T07:40:04;2.20;;;1.25;;
67819;SDS011;54618;52.018;5.576;2023-04-30T07:42:31;2.03;;;1.00;;
67819;SDS011;54618;52.018;5.576;2023-04-30T07:44:57;1.67;;;0.98;;
67819;SDS011;54618;52.018;5.576;2023-04-30T07:47:23;1.40;;;1.00;;
67819;SDS011;54618;52.018;5.576;2023-04-30T07:49:50;1.90;;;1.10;;
67819;SDS011;54618;52.018;5.576;2023-04-30T07:52:16;1.95;;;0.98;;
67819;SDS011;54618;52.018;5.576;2023-04-30T07:54:41;1.42;;;0.95;;
67819;SDS011;54618;52.018;5.576;2023-04-30T07:57:07;1.30;;;1.00;;
67819;SDS011;54618;52.018;5.576;2023-04-30T07:59:32;1.50;;;1.10;;
67819;SDS011;54618;52.018;5.576;2023-04-30T08:01:58;2.10;;;1.02;;
67819;SDS011;54618;52.018;5.576;2023-04-30T08:04:23;1.85;;;0.90;;
67819;SDS011;54618;52.018;5.576;2023-04-30T08:06:49;1.45;;;1.00;;
67819;SDS011;54618;52.018;5.576;2023-04-30T08:09:15;1.42;;;1.00;;
67819;SDS011;54618;52.018;5.576;2023-04-30T08:11:41;1.67;;;1.00;;
67819;SDS011;54618;52.018;5.576;2023-04-30T08:14:06;21.63;;;2.80;;
67819;SDS011;54618;52.018;5.576;2023-04-30T08:16:32;2.17;;;1.00;;
67819;SDS011;54618;52.018;5.576;2023-04-30T08:18:57;3.58;;;1.02;;
67819;SDS011;54618;52.018;5.576;2023-04-30T08:21:24;3.80;;;1.17;;
67819;SDS011;54618;52.018;5.576;2023-04-30T08:23:52;3.72;;;1.00;;
67819;SDS011;54618;52.018;5.576;2023-04-30T08:26:18;1.83;;;0.93;;
67819;SDS011;54618;52.018;5.576;2023-04-30T08:28:43;2.05;;;1.00;;
67819;SDS011;54618;52.018;5.576;2023-04-30T08:31:09;3.45;;;1.02;;
67819;SDS011;54618;52.018;5.576;2023-04-30T08:33:34;1.75;;;1.00;;
67819;SDS011;54618;52.018;5.576;2023-04-30T08:36:00;2.53;;;0.80;;
67819;SDS011;54618;52.018;5.576;2023-04-30T08:38:26;2.22;;;1.00;;
67819;SDS011;54618;52.018;5.576;2023-04-30T08:41:00;2.35;;;0.88;;
67819;SDS011;54618;52.018;5.576;2023-04-30T08:43:29;2.78;;;1.00;;
67819;SDS011;54618;52.018;5.576;2023-04-30T08:45:55;2.65;;;0.90;;
67819;SDS011;54618;52.018;5.576;2023-04-30T08:48:22;2.20;;;1.00;;
67819;SDS011;54618;52.018;5.576;2023-04-30T08:50:48;2.83;;;1.00;;
67819;SDS011;54618;52.018;5.576;2023-04-30T08:53:14;1.58;;;1.00;;
67819;SDS011;54618;52.018;5.576;2023-04-30T08:55:41;1.50;;;0.90;;
67819;SDS011;54618;52.018;5.576;2023-04-30T08:58:07;2.22;;;1.00;;
67819;SDS011;54618;52.018;5.576;2023-04-30T09:00:34;1.75;;;0.90;;
67819;SDS011;54618;52.018;5.576;2023-04-30T09:03:02;2.45;;;0.98;;
67819;SDS011;54618;52.018;5.576;2023-04-30T09:05:28;1.73;;;1.00;;
67819;SDS011;54618;52.018;5.576;2023-04-30T09:07:54;3.10;;;1.08;;
67819;SDS011;54618;52.018;5.576;2023-04-30T09:10:20;4.88;;;1.75;;
67819;SDS011;54618;52.018;5.576;2023-04-30T09:15:32;2.95;;;1.00;;
67819;SDS011;54618;52.018;5.576;2023-04-30T09:20:55;3.28;;;1.70;;
67819;SDS011;54618;52.018;5.576;2023-04-30T09:23:22;4.28;;;2.00;;
67819;SDS011;54618;52.018;5.576;2023-04-30T09:25:48;4.70;;;1.50;;
67819;SDS011;54618;52.018;5.576;2023-04-30T09:28:14;3.25;;;1.20;;
67819;SDS011;54618;52.018;5.576;2023-04-30T09:30:40;3.47;;;1.25;;
67819;SDS011;54618;52.018;5.576;2023-04-30T09:33:06;3.63;;;1.30;;
67819;SDS011;54618;52.018;5.576;2023-04-30T09:35:33;4.88;;;1.40;;
67819;SDS011;54618;52.018;5.576;2023-04-30T09:38:03;2.63;;;1.10;;
67819;SDS011;54618;52.018;5.576;2023-04-30T09:40:34;4.35;;;1.20;;
67819;SDS011;54618;52.018;5.576;2023-04-30T09:43:00;2.28;;;0.90;;
67819;SDS011;54618;52.018;5.576;2023-04-30T09:45:37;1.83;;;0.93;;
67819;SDS011;54618;52.018;5.576;2023-04-30T09:48:04;3.00;;;1.25;;
67819;SDS011;54618;52.018;5.576;2023-04-30T09:50:36;2.20;;;1.10;;
67819;SDS011;54618;52.018;5.576;2023-04-30T09:53:09;4.38;;;1.10;;
67819;SDS011;54618;52.018;5.576;2023-04-30T09:55:38;2.47;;;1.02;;
67819;SDS011;54618;52.018;5.576;2023-04-30T09:58:08;3.10;;;1.10;;
67819;SDS011;54618;52.018;5.576;2023-04-30T10:00:35;2.20;;;0.90;;
67819;SDS011;54618;52.018;5.576;2023-04-30T10:03:05;2.20;;;1.05;;
67819;SDS011;54618;52.018;5.576;2023-04-30T10:05:39;3.03;;;1.10;;
67819;SDS011;54618;52.018;5.576;2023-04-30T10:08:12;3.28;;;1.10;;
67819;SDS011;54618;52.018;5.576;2023-04-30T10:10:49;2.28;;;1.00;;
67819;SDS011;54618;52.018;5.576;2023-04-30T10:13:19;4.43;;;1.10;;
67819;SDS011;54618;52.018;5.576;2023-04-30T10:15:47;2.42;;;1.40;;
67819;SDS011;54618;52.018;5.576;2023-04-30T10:20:47;2.13;;;1.20;;
67819;SDS011;54618;52.018;5.576;2023-04-30T10:23:14;4.10;;;1.40;;
67819;SDS011;54618;52.018;5.576;2023-04-30T10:25:40;1.85;;;1.20;;
67819;SDS011;54618;52.018;5.576;2023-04-30T10:28:07;2.45;;;1.17;;
67819;SDS011;54618;52.018;5.576;2023-04-30T10:30:34;2.83;;;1.10;;
67819;SDS011;54618;52.018;5.576;2023-04-30T10:35:48;2.60;;;1.48;;
67819;SDS011;54618;52.018;5.576;2023-04-30T10:38:21;3.40;;;1.23;;
67819;SDS011;54618;52.018;5.576;2023-04-30T10:40:49;5.25;;;1.30;;
67819;SDS011;54618;52.018;5.576;2023-04-30T10:43:18;2.42;;;1.40;;
67819;SDS011;54618;52.018;5.576;2023-04-30T10:45:47;3.05;;;1.25;;
67819;SDS011;54618;52.018;5.576;2023-04-30T10:48:13;3.22;;;1.20;;
67819;SDS011;54618;52.018;5.576;2023-04-30T10:50:41;2.83;;;1.30;;
67819;SDS011;54618;52.018;5.576;2023-04-30T10:53:08;3.55;;;1.35;;
67819;SDS011;54618;52.018;5.576;2023-04-30T10:55:46;2.35;;;1.20;;
67819;SDS011;54618;52.018;5.576;2023-04-30T10:58:22;2.58;;;1.02;;
67819;SDS011;54618;52.018;5.576;2023-04-30T11:00:58;3.08;;;1.02;;
67819;SDS011;54618;52.018;5.576;2023-04-30T11:03:35;3.03;;;1.35;;
67819;SDS011;54618;52.018;5.576;2023-04-30T11:06:10;3.03;;;1.30;;
67819;SDS011;54618;52.018;5.576;2023-04-30T11:08:42;2.33;;;1.23;;
67819;SDS011;54618;52.018;5.576;2023-04-30T11:11:09;3.57;;;1.40;;
67819;SDS011;54618;52.018;5.576;2023-04-30T11:13:44;2.13;;;1.20;;
67819;SDS011;54618;52.018;5.576;2023-04-30T11:16:11;2.47;;;1.23;;
67819;SDS011;54618;52.018;5.576;2023-04-30T11:18:43;3.35;;;1.20;;
67819;SDS011;54618;52.018;5.576;2023-04-30T11:21:10;2.33;;;1.35;;
67819;SDS011;54618;52.018;5.576;2023-04-30T11:23:36;3.78;;;1.40;;
67819;SDS011;54618;52.018;5.576;2023-04-30T11:26:05;2.75;;;1.20;;
67819;SDS011;54618;52.018;5.576;2023-04-30T11:28:31;3.40;;;1.23;;
67819;SDS011;54618;52.018;5.576;2023-04-30T11:30:59;2.72;;;1.30;;
67819;SDS011;54618;52.018;5.576;2023-04-30T11:33:26;4.13;;;1.20;;
67819;SDS011;54618;52.018;5.576;2023-04-30T11:35:54;4.18;;;1.27;;
67819;SDS011;54618;52.018;5.576;2023-04-30T11:38:24;2.75;;;1.10;;
67819;SDS011;54618;52.018;5.576;2023-04-30T11:40:51;2.20;;;1.30;;
67819;SDS011;54618;52.018;5.576;2023-04-30T11:43:22;1.90;;;1.10;;
67819;SDS011;54618;52.018;5.576;2023-04-30T11:46:00;2.25;;;1.00;;
67819;SDS011;54618;52.018;5.576;2023-04-30T11:48:37;2.00;;;1.10;;
67819;SDS011;54618;52.018;5.576;2023-04-30T11:53:39;2.22;;;1.10;;
67819;SDS011;54618;52.018;5.576;2023-04-30T11:56:06;1.60;;;1.10;;
67819;SDS011;54618;52.018;5.576;2023-04-30T11:58:32;2.17;;;1.00;;
67819;SDS011;54618;52.018;5.576;2023-04-30T12:01:05;1.83;;;1.10;;
67819;SDS011;54618;52.018;5.576;2023-04-30T12:03:39;3.35;;;1.20;;
67819;SDS011;54618;52.018;5.576;2023-04-30T12:06:05;1.77;;;1.00;;
67819;SDS011;54618;52.018;5.576;2023-04-30T12:08:33;4.68;;;1.30;;
67819;SDS011;54618;52.018;5.576;2023-04-30T12:10:59;3.63;;;1.13;;
67819;SDS011;54618;52.018;5.576;2023-04-30T12:13:25;2.40;;;1.15;;
67819;SDS011;54618;52.018;5.576;2023-04-30T12:16:00;2.90;;;1.17;;
67819;SDS011;54618;52.018;5.576;2023-04-30T12:18:25;2.28;;;1.20;;
67819;SDS011;54618;52.018;5.576;2023-04-30T12:20:51;3.28;;;1.10;;
67819;SDS011;54618;52.018;5.576;2023-04-30T12:23:18;1.90;;;1.08;;
67819;SDS011;54618;52.018;5.576;2023-04-30T12:25:44;5.25;;;1.20;;
67819;SDS011;54618;52.018;5.576;2023-04-30T12:28:11;4.93;;;1.00;;
67819;SDS011;54618;52.018;5.576;2023-04-30T12:30:36;5.18;;;1.20;;
67819;SDS011;54618;52.018;5.576;2023-04-30T12:33:02;4.57;;;1.02;;
67819;SDS011;54618;52.018;5.576;2023-04-30T12:35:29;3.55;;;1.15;;
67819;SDS011;54618;52.018;5.576;2023-04-30T12:38:03;1.38;;;0.80;;
67819;SDS011;54618;52.018;5.576;2023-04-30T12:40:30;5.13;;;1.00;;
67819;SDS011;54618;52.018;5.576;2023-04-30T12:43:06;2.92;;;0.95;;
67819;SDS011;54618;52.018;5.576;2023-04-30T12:45:46;2.45;;;1.20;;
67819;SDS011;54618;52.018;5.576;2023-04-30T12:48:22;2.25;;;1.00;;
67819;SDS011;54618;52.018;5.576;2023-04-30T12:50:58;2.75;;;1.00;;
67819;SDS011;54618;52.018;5.576;2023-04-30T12:53:25;2.47;;;0.90;;
67819;SDS011;54618;52.018;5.576;2023-04-30T12:56:14;2.13;;;0.80;;
67819;SDS011;54618;52.018;5.576;2023-04-30T12:58:40;1.70;;;1.02;;
67819;SDS011;54618;52.018;5.576;2023-04-30T13:01:11;3.13;;;1.13;;
67819;SDS011;54618;52.018;5.576;2023-04-30T13:03:37;2.25;;;0.90;;
67819;SDS011;54618;52.018;5.576;2023-04-30T13:06:03;3.53;;;1.00;;
67819;SDS011;54618;52.018;5.576;2023-04-30T13:08:30;4.97;;;1.15;;
67819;SDS011;54618;52.018;5.576;2023-04-30T13:10:56;3.65;;;0.90;;
67819;SDS011;54618;52.018;5.576;2023-04-30T13:13:22;5.70;;;1.10;;
67819;SDS011;54618;52.018;5.576;2023-04-30T13:15:48;3.13;;;0.85;;
67819;SDS011;54618;52.018;5.576;2023-04-30T13:18:13;3.33;;;1.05;;
67819;SDS011;54618;52.018;5.576;2023-04-30T13:20:41;1.63;;;0.88;;
67819;SDS011;54618;52.018;5.576;2023-04-30T13:23:08;2.47;;;0.90;;
67819;SDS011;54618;52.018;5.576;2023-04-30T13:25:34;2.25;;;0.90;;
67819;SDS011;54618;52.018;5.576;2023-04-30T13:28:00;2.38;;;0.90;;
67819;SDS011;54618;52.018;5.576;2023-04-30T13:30:26;2.08;;;0.90;;
67819;SDS011;54618;52.018;5.576;2023-04-30T13:32:52;4.25;;;1.00;;
67819;SDS011;54618;52.018;5.576;2023-04-30T13:35:18;2.72;;;0.93;;
67819;SDS011;54618;52.018;5.576;2023-04-30T13:37:44;2.90;;;0.82;;
67819;SDS011;54618;52.018;5.576;2023-04-30T13:40:09;2.15;;;0.90;;
67819;SDS011;54618;52.018;5.576;2023-04-30T13:42:36;1.45;;;0.70;;
67819;SDS011;54618;52.018;5.576;2023-04-30T13:45:03;1.35;;;0.80;;
67819;SDS011;54618;52.018;5.576;2023-04-30T13:47:30;3.38;;;0.80;;
67819;SDS011;54618;52.018;5.576;2023-04-30T13:49:56;3.33;;;0.90;;
67819;SDS011;54618;52.018;5.576;2023-04-30T13:52:22;1.75;;;0.90;;
67819;SDS011;54618;52.018;5.576;2023-04-30T13:54:49;3.20;;;0.90;;
67819;SDS011;54618;52.018;5.576;2023-04-30T13:57:16;2.78;;;0.85;;
67819;SDS011;54618;52.018;5.576;2023-04-30T13:59:41;2.03;;;1.02;;
67819;SDS011;54618;52.018;5.576;2023-04-30T14:02:07;1.83;;;0.80;;
67819;SDS011;54618;52.018;5.576;2023-04-30T14:04:33;1.85;;;0.98;;
67819;SDS011;54618;52.018;5.576;2023-04-30T14:06:58;1.98;;;0.90;;
67819;SDS011;54618;52.018;5.576;2023-04-30T14:09:25;7.88;;;1.10;;
67819;SDS011;54618;52.018;5.576;2023-04-30T14:11:51;6.03;;;0.95;;
67819;SDS011;54618;52.018;5.576;2023-04-30T14:14:16;5.40;;;1.02;;
67819;SDS011;54618;52.018;5.576;2023-04-30T14:16:42;4.55;;;0.90;;
67819;SDS011;54618;52.018;5.576;2023-04-30T14:19:08;1.23;;;0.70;;
67819;SDS011;54618;52.018;5.576;2023-04-30T14:21:34;3.67;;;1.00;;
67819;SDS011;54618;52.018;5.576;2023-04-30T14:24:00;2.20;;;1.20;;
67819;SDS011;54618;52.018;5.576;2023-04-30T14:26:25;3.05;;;0.85;;
67819;SDS011;54618;52.018;5.576;2023-04-30T14:28:51;4.28;;;1.00;;
67819;SDS011;54618;52.018;5.576;2023-04-30T14:31:16;9.57;;;1.30;;
67819;SDS011;54618;52.018;5.576;2023-04-30T14:33:42;6.32;;;1.15;;
67819;SDS011;54618;52.018;5.576;2023-04-30T14:36:08;4.28;;;0.88;;
67819;SDS011;54618;52.018;5.576;2023-04-30T14:38:33;4.40;;;1.00;;
67819;SDS011;54618;52.018;5.576;2023-04-30T14:40:59;4.32;;;0.90;;
67819;SDS011;54618;52.018;5.576;2023-04-30T14:43:24;1.95;;;0.80;;
67819;SDS011;54618;52.018;5.576;2023-04-30T14:45:50;7.43;;;0.93;;
67819;SDS011;54618;52.018;5.576;2023-04-30T14:48:16;2.65;;;1.08;;
67819;SDS011;54618;52.018;5.576;2023-04-30T14:50:42;3.08;;;1.00;;
67819;SDS011;54618;52.018;5.576;2023-04-30T14:53:08;3.40;;;0.98;;
67819;SDS011;54618;52.018;5.576;2023-04-30T14:55:35;1.85;;;0.80;;
67819;SDS011;54618;52.018;5.576;2023-04-30T14:58:01;4.03;;;1.65;;
67819;SDS011;54618;52.018;5.576;2023-04-30T15:00:26;2.70;;;0.98;;
67819;SDS011;54618;52.018;5.576;2023-04-30T15:02:53;3.10;;;0.85;;
67819;SDS011;54618;52.018;5.576;2023-04-30T15:05:19;3.28;;;0.80;;
67819;SDS011;54618;52.018;5.576;2023-04-30T15:07:45;1.70;;;0.70;;
67819;SDS011;54618;52.018;5.576;2023-04-30T15:10:10;2.55;;;0.70;;
67819;SDS011;54618;52.018;5.576;2023-04-30T15:12:36;1.45;;;0.60;;
67819;SDS011;54618;52.018;5.576;2023-04-30T15:15:02;1.60;;;0.80;;